sensor_id;sensor_type;location;lat;lon;timestamp;P1;durP1;ratioP1;P2;durP2;ratioP2
69046;SDS011;57261;47.504;19.084;2022-09-09T00:02:21;5.97;;;2.77;;
69046;SDS011;57261;47.504;19.084;2022-09-09T00:09:12;5.22;;;2.00;;
69046;SDS011;57261;47.504;19.084;2022-09-09T00:21:59;5.07;;;1.90;;
69046;SDS011;57261;47.504;19.084;2022-09-09T00:25:24;4.80;;;1.67;;
69046;SDS011;57261;47.504;19.084;2022-09-09T00:28:31;5.47;;;1.80;;
69046;SDS011;57261;47.504;19.084;2022-09-09T00:31:36;5.50;;;1.87;;
69046;SDS011;57261;47.504;19.084;2022-09-09T00:34:49;4.87;;;1.80;;
69046;SDS011;57261;47.504;19.084;2022-09-09T00:37:55;4.53;;;1.80;;
69046;SDS011;57261;47.504;19.084;2022-09-09T00:50:53;4.43;;;1.77;;
69046;SDS011;57261;47.504;19.084;2022-09-09T00:57:48;4.55;;;1.88;;
69046;SDS011;57261;47.504;19.084;2022-09-09T01:00:55;4.40;;;1.90;;
69046;SDS011;57261;47.504;19.084;2022-09-09T01:04:04;4.43;;;1.70;;
69046;SDS011;57261;47.504;19.084;2022-09-09T01:07:16;5.30;;;2.03;;
69046;SDS011;57261;47.504;19.084;2022-09-09T01:13:33;5.72;;;2.05;;
69046;SDS011;57261;47.504;19.084;2022-09-09T01:16:36;4.85;;;2.08;;
69046;SDS011;57261;47.504;19.084;2022-09-09T01:22:44;5.20;;;1.92;;
69046;SDS011;57261;47.504;19.084;2022-09-09T01:29:18;4.90;;;2.00;;
69046;SDS011;57261;47.504;19.084;2022-09-09T01:32:37;5.07;;;2.07;;
69046;SDS011;57261;47.504;19.084;2022-09-09T01:38:51;5.30;;;2.17;;
69046;SDS011;57261;47.504;19.084;2022-09-09T01:41:52;5.78;;;2.10;;
69046;SDS011;57261;47.504;19.084;2022-09-09T01:44:53;4.50;;;2.20;;
69046;SDS011;57261;47.504;19.084;2022-09-09T01:47:55;6.50;;;2.40;;
69046;SDS011;57261;47.504;19.084;2022-09-09T01:50:56;5.68;;;2.30;;
69046;SDS011;57261;47.504;19.084;2022-09-09T01:53:56;4.97;;;2.00;;
69046;SDS011;57261;47.504;19.084;2022-09-09T02:00:21;4.83;;;1.80;;
69046;SDS011;57261;47.504;19.084;2022-09-09T02:03:27;6.22;;;1.98;;
69046;SDS011;57261;47.504;19.084;2022-09-09T02:06:30;4.63;;;1.95;;
69046;SDS011;57261;47.504;19.084;2022-09-09T02:09:40;6.15;;;2.20;;
69046;SDS011;57261;47.504;19.084;2022-09-09T02:12:49;5.10;;;2.00;;
69046;SDS011;57261;47.504;19.084;2022-09-09T02:15:57;5.00;;;1.90;;
69046;SDS011;57261;47.504;19.084;2022-09-09T02:22:25;5.68;;;2.03;;
69046;SDS011;57261;47.504;19.084;2022-09-09T02:25:32;4.43;;;1.80;;
69046;SDS011;57261;47.504;19.084;2022-09-09T02:28:34;5.07;;;2.10;;
69046;SDS011;57261;47.504;19.084;2022-09-09T02:31:38;5.13;;;1.97;;
69046;SDS011;57261;47.504;19.084;2022-09-09T02:34:44;6.03;;;2.40;;
69046;SDS011;57261;47.504;19.084;2022-09-09T02:37:49;5.32;;;2.22;;
69046;SDS011;57261;47.504;19.084;2022-09-09T02:40:53;5.00;;;2.25;;
69046;SDS011;57261;47.504;19.084;2022-09-09T02:43:53;5.40;;;2.40;;
69046;SDS011;57261;47.504;19.084;2022-09-09T02:51:10;6.07;;;2.70;;
69046;SDS011;57261;47.504;19.084;2022-09-09T02:54:12;5.97;;;3.10;;
69046;SDS011;57261;47.504;19.084;2022-09-09T02:57:25;5.40;;;2.65;;
69046;SDS011;57261;47.504;19.084;2022-09-09T03:00:28;5.53;;;2.53;;
69046;SDS011;57261;47.504;19.084;2022-09-09T03:03:29;5.28;;;2.50;;
69046;SDS011;57261;47.504;19.084;2022-09-09T03:06:30;6.22;;;2.30;;
69046;SDS011;57261;47.504;19.084;2022-09-09T03:09:30;5.73;;;2.40;;
69046;SDS011;57261;47.504;19.084;2022-09-09T03:12:32;6.35;;;2.53;;
69046;SDS011;57261;47.504;19.084;2022-09-09T03:15:33;5.57;;;2.65;;
69046;SDS011;57261;47.504;19.084;2022-09-09T03:18:34;5.60;;;2.70;;
69046;SDS011;57261;47.504;19.084;2022-09-09T03:21:35;6.60;;;2.87;;
69046;SDS011;57261;47.504;19.084;2022-09-09T03:24:35;5.60;;;2.80;;
69046;SDS011;57261;47.504;19.084;2022-09-09T03:27:36;5.50;;;2.70;;
69046;SDS011;57261;47.504;19.084;2022-09-09T03:30:36;5.60;;;2.60;;
69046;SDS011;57261;47.504;19.084;2022-09-09T03:33:38;5.80;;;2.80;;
69046;SDS011;57261;47.504;19.084;2022-09-09T03:36:38;5.57;;;2.60;;
69046;SDS011;57261;47.504;19.084;2022-09-09T03:39:41;6.03;;;2.70;;
69046;SDS011;57261;47.504;19.084;2022-09-09T03:42:41;5.87;;;3.13;;
69046;SDS011;57261;47.504;19.084;2022-09-09T03:45:47;5.80;;;2.90;;
69046;SDS011;57261;47.504;19.084;2022-09-09T03:48:48;6.07;;;3.13;;
69046;SDS011;57261;47.504;19.084;2022-09-09T03:51:49;6.05;;;2.90;;
69046;SDS011;57261;47.504;19.084;2022-09-09T03:54:49;5.77;;;2.80;;
69046;SDS011;57261;47.504;19.084;2022-09-09T03:57:50;6.30;;;3.20;;
69046;SDS011;57261;47.504;19.084;2022-09-09T04:00:57;5.50;;;2.63;;
69046;SDS011;57261;47.504;19.084;2022-09-09T04:04:02;7.40;;;2.90;;
69046;SDS011;57261;47.504;19.084;2022-09-09T04:07:03;8.00;;;2.70;;
69046;SDS011;57261;47.504;19.084;2022-09-09T04:10:06;6.10;;;3.10;;
69046;SDS011;57261;47.504;19.084;2022-09-09T04:13:08;5.80;;;2.83;;
69046;SDS011;57261;47.504;19.084;2022-09-09T04:16:09;10.13;;;3.20;;
69046;SDS011;57261;47.504;19.084;2022-09-09T04:19:11;5.93;;;3.00;;
69046;SDS011;57261;47.504;19.084;2022-09-09T04:22:13;9.10;;;3.05;;
69046;SDS011;57261;47.504;19.084;2022-09-09T04:25:14;6.83;;;2.63;;
69046;SDS011;57261;47.504;19.084;2022-09-09T04:28:15;6.17;;;2.80;;
69046;SDS011;57261;47.504;19.084;2022-09-09T04:31:17;7.70;;;3.20;;
69046;SDS011;57261;47.504;19.084;2022-09-09T04:34:23;5.90;;;3.00;;
69046;SDS011;57261;47.504;19.084;2022-09-09T04:37:24;6.30;;;2.90;;
69046;SDS011;57261;47.504;19.084;2022-09-09T04:40:24;7.20;;;2.60;;
69046;SDS011;57261;47.504;19.084;2022-09-09T04:43:25;8.27;;;2.70;;
69046;SDS011;57261;47.504;19.084;2022-09-09T04:46:27;6.70;;;2.90;;
69046;SDS011;57261;47.504;19.084;2022-09-09T04:49:28;7.47;;;2.70;;
69046;SDS011;57261;47.504;19.084;2022-09-09T04:52:33;6.22;;;2.65;;
69046;SDS011;57261;47.504;19.084;2022-09-09T04:55:34;6.90;;;3.10;;
69046;SDS011;57261;47.504;19.084;2022-09-09T04:58:35;6.40;;;2.87;;
69046;SDS011;57261;47.504;19.084;2022-09-09T05:01:36;6.43;;;2.92;;
69046;SDS011;57261;47.504;19.084;2022-09-09T05:04:36;5.97;;;2.90;;
69046;SDS011;57261;47.504;19.084;2022-09-09T05:07:37;7.57;;;2.90;;
69046;SDS011;57261;47.504;19.084;2022-09-09T05:10:38;5.90;;;2.80;;
69046;SDS011;57261;47.504;19.084;2022-09-09T05:13:38;6.53;;;2.90;;
69046;SDS011;57261;47.504;19.084;2022-09-09T05:16:39;5.67;;;2.33;;
69046;SDS011;57261;47.504;19.084;2022-09-09T05:19:39;6.47;;;3.07;;
69046;SDS011;57261;47.504;19.084;2022-09-09T05:22:42;5.82;;;2.72;;
69046;SDS011;57261;47.504;19.084;2022-09-09T05:25:42;7.03;;;3.20;;
69046;SDS011;57261;47.504;19.084;2022-09-09T05:28:43;6.60;;;3.00;;
69046;SDS011;57261;47.504;19.084;2022-09-09T05:31:45;5.63;;;3.03;;
69046;SDS011;57261;47.504;19.084;2022-09-09T05:34:47;6.20;;;2.78;;
69046;SDS011;57261;47.504;19.084;2022-09-09T05:37:47;7.53;;;3.30;;
69046;SDS011;57261;47.504;19.084;2022-09-09T05:40:49;6.07;;;2.80;;
69046;SDS011;57261;47.504;19.084;2022-09-09T05:43:52;6.00;;;2.90;;
69046;SDS011;57261;47.504;19.084;2022-09-09T05:47:02;7.17;;;3.30;;
69046;SDS011;57261;47.504;19.084;2022-09-09T05:50:03;6.93;;;2.77;;
69046;SDS011;57261;47.504;19.084;2022-09-09T05:53:04;7.40;;;2.95;;
69046;SDS011;57261;47.504;19.084;2022-09-09T05:56:05;6.87;;;3.40;;
69046;SDS011;57261;47.504;19.084;2022-09-09T05:59:07;7.10;;;3.50;;
69046;SDS011;57261;47.504;19.084;2022-09-09T06:02:08;6.20;;;3.20;;
69046;SDS011;57261;47.504;19.084;2022-09-09T06:05:09;5.43;;;2.72;;
69046;SDS011;57261;47.504;19.084;2022-09-09T06:08:10;6.72;;;3.28;;
69046;SDS011;57261;47.504;19.084;2022-09-09T06:11:13;8.63;;;3.07;;
69046;SDS011;57261;47.504;19.084;2022-09-09T06:14:18;8.65;;;4.35;;
69046;SDS011;57261;47.504;19.084;2022-09-09T06:17:18;8.23;;;4.30;;
69046;SDS011;57261;47.504;19.084;2022-09-09T06:20:20;10.07;;;3.92;;
69046;SDS011;57261;47.504;19.084;2022-09-09T06:23:21;8.53;;;4.93;;
69046;SDS011;57261;47.504;19.084;2022-09-09T06:26:40;8.87;;;4.80;;
69046;SDS011;57261;47.504;19.084;2022-09-09T06:29:41;11.13;;;4.68;;
69046;SDS011;57261;47.504;19.084;2022-09-09T06:32:44;9.52;;;4.50;;
69046;SDS011;57261;47.504;19.084;2022-09-09T06:35:50;7.70;;;3.73;;
69046;SDS011;57261;47.504;19.084;2022-09-09T06:38:53;8.18;;;3.40;;
69046;SDS011;57261;47.504;19.084;2022-09-09T06:41:54;6.87;;;3.07;;
69046;SDS011;57261;47.504;19.084;2022-09-09T06:44:55;7.47;;;3.10;;
69046;SDS011;57261;47.504;19.084;2022-09-09T06:47:55;7.73;;;3.80;;
69046;SDS011;57261;47.504;19.084;2022-09-09T06:54:11;8.07;;;3.30;;
69046;SDS011;57261;47.504;19.084;2022-09-09T06:57:12;6.97;;;3.55;;
69046;SDS011;57261;47.504;19.084;2022-09-09T07:00:13;7.17;;;3.37;;
69046;SDS011;57261;47.504;19.084;2022-09-09T07:03:14;6.82;;;3.53;;
69046;SDS011;57261;47.504;19.084;2022-09-09T07:06:15;6.63;;;3.37;;
69046;SDS011;57261;47.504;19.084;2022-09-09T07:09:20;7.75;;;3.45;;
69046;SDS011;57261;47.504;19.084;2022-09-09T07:12:21;6.77;;;3.60;;
69046;SDS011;57261;47.504;19.084;2022-09-09T07:15:22;8.93;;;3.80;;
69046;SDS011;57261;47.504;19.084;2022-09-09T07:18:23;8.97;;;4.20;;
69046;SDS011;57261;47.504;19.084;2022-09-09T07:21:24;8.03;;;4.27;;
69046;SDS011;57261;47.504;19.084;2022-09-09T07:24:28;7.47;;;3.77;;
69046;SDS011;57261;47.504;19.084;2022-09-09T07:27:30;7.35;;;3.60;;
69046;SDS011;57261;47.504;19.084;2022-09-09T07:30:30;8.23;;;3.40;;
69046;SDS011;57261;47.504;19.084;2022-09-09T07:33:32;6.40;;;3.20;;
69046;SDS011;57261;47.504;19.084;2022-09-09T07:36:35;6.60;;;2.80;;
69046;SDS011;57261;47.504;19.084;2022-09-09T07:39:37;5.82;;;2.88;;
69046;SDS011;57261;47.504;19.084;2022-09-09T07:42:38;6.90;;;2.85;;
69046;SDS011;57261;47.504;19.084;2022-09-09T07:45:38;6.33;;;2.77;;
69046;SDS011;57261;47.504;19.084;2022-09-09T07:48:44;6.83;;;2.80;;
69046;SDS011;57261;47.504;19.084;2022-09-09T07:51:46;6.67;;;3.00;;
69046;SDS011;57261;47.504;19.084;2022-09-09T07:54:48;7.43;;;3.10;;
69046;SDS011;57261;47.504;19.084;2022-09-09T07:57:48;7.37;;;3.13;;
69046;SDS011;57261;47.504;19.084;2022-09-09T08:00:48;6.40;;;3.07;;
69046;SDS011;57261;47.504;19.084;2022-09-09T08:03:56;6.38;;;3.33;;
69046;SDS011;57261;47.504;19.084;2022-09-09T08:06:59;5.70;;;2.72;;
69046;SDS011;57261;47.504;19.084;2022-09-09T08:10:03;7.47;;;3.30;;
69046;SDS011;57261;47.504;19.084;2022-09-09T08:13:04;7.67;;;3.20;;
69046;SDS011;57261;47.504;19.084;2022-09-09T08:19:10;6.93;;;2.88;;
69046;SDS011;57261;47.504;19.084;2022-09-09T08:22:11;7.20;;;2.93;;
69046;SDS011;57261;47.504;19.084;2022-09-09T08:25:11;7.25;;;3.33;;
69046;SDS011;57261;47.504;19.084;2022-09-09T08:28:12;6.43;;;2.70;;
69046;SDS011;57261;47.504;19.084;2022-09-09T08:31:14;6.70;;;2.80;;
69046;SDS011;57261;47.504;19.084;2022-09-09T08:34:25;5.60;;;2.63;;
69046;SDS011;57261;47.504;19.084;2022-09-09T08:37:27;5.95;;;2.80;;
69046;SDS011;57261;47.504;19.084;2022-09-09T08:40:29;6.30;;;3.00;;
69046;SDS011;57261;47.504;19.084;2022-09-09T08:43:38;6.57;;;3.27;;
69046;SDS011;57261;47.504;19.084;2022-09-09T08:46:44;6.03;;;2.80;;
69046;SDS011;57261;47.504;19.084;2022-09-09T08:53:52;5.43;;;2.40;;
69046;SDS011;57261;47.504;19.084;2022-09-09T08:56:53;7.03;;;3.08;;
69046;SDS011;57261;47.504;19.084;2022-09-09T08:59:54;6.50;;;3.00;;
69046;SDS011;57261;47.504;19.084;2022-09-09T09:03:01;7.70;;;2.80;;
69046;SDS011;57261;47.504;19.084;2022-09-09T09:09:21;5.90;;;3.03;;
69046;SDS011;57261;47.504;19.084;2022-09-09T09:12:35;6.32;;;2.90;;
69046;SDS011;57261;47.504;19.084;2022-09-09T09:15:40;6.38;;;3.10;;
69046;SDS011;57261;47.504;19.084;2022-09-09T09:18:45;5.10;;;2.50;;
69046;SDS011;57261;47.504;19.084;2022-09-09T09:24:52;5.93;;;2.92;;
69046;SDS011;57261;47.504;19.084;2022-09-09T09:27:59;7.32;;;2.78;;
69046;SDS011;57261;47.504;19.084;2022-09-09T09:31:11;6.35;;;2.80;;
69046;SDS011;57261;47.504;19.084;2022-09-09T09:34:13;6.27;;;2.63;;
69046;SDS011;57261;47.504;19.084;2022-09-09T09:37:17;6.90;;;3.15;;
69046;SDS011;57261;47.504;19.084;2022-09-09T09:40:27;7.10;;;3.30;;
69046;SDS011;57261;47.504;19.084;2022-09-09T09:43:31;7.10;;;3.50;;
69046;SDS011;57261;47.504;19.084;2022-09-09T09:46:32;8.77;;;3.75;;
69046;SDS011;57261;47.504;19.084;2022-09-09T09:49:32;6.37;;;3.50;;
69046;SDS011;57261;47.504;19.084;2022-09-09T09:52:33;7.30;;;3.45;;
69046;SDS011;57261;47.504;19.084;2022-09-09T09:55:35;8.47;;;3.90;;
69046;SDS011;57261;47.504;19.084;2022-09-09T10:01:46;6.07;;;2.90;;
69046;SDS011;57261;47.504;19.084;2022-09-09T10:04:46;6.40;;;2.83;;
69046;SDS011;57261;47.504;19.084;2022-09-09T10:07:59;6.35;;;2.90;;
69046;SDS011;57261;47.504;19.084;2022-09-09T10:11:12;6.70;;;3.50;;
69046;SDS011;57261;47.504;19.084;2022-09-09T10:31:08;6.70;;;3.03;;
69046;SDS011;57261;47.504;19.084;2022-09-09T10:55:13;7.00;;;3.10;;
69046;SDS011;57261;47.504;19.084;2022-09-09T10:58:19;6.68;;;2.80;;
69046;SDS011;57261;47.504;19.084;2022-09-09T11:01:28;5.80;;;2.70;;
69046;SDS011;57261;47.504;19.084;2022-09-09T11:07:44;6.25;;;2.90;;
69046;SDS011;57261;47.504;19.084;2022-09-09T11:14:28;7.00;;;2.95;;
69046;SDS011;57261;47.504;19.084;2022-09-09T11:17:33;6.78;;;3.13;;
69046;SDS011;57261;47.504;19.084;2022-09-09T11:20:41;6.13;;;3.20;;
69046;SDS011;57261;47.504;19.084;2022-09-09T11:23:45;8.35;;;3.70;;
69046;SDS011;57261;47.504;19.084;2022-09-09T11:26:54;8.82;;;3.75;;
69046;SDS011;57261;47.504;19.084;2022-09-09T11:30:17;8.50;;;3.30;;
69046;SDS011;57261;47.504;19.084;2022-09-09T11:43:13;6.15;;;3.13;;
69046;SDS011;57261;47.504;19.084;2022-09-09T11:46:19;7.43;;;3.30;;
69046;SDS011;57261;47.504;19.084;2022-09-09T11:49:27;7.63;;;3.30;;
69046;SDS011;57261;47.504;19.084;2022-09-09T11:52:37;6.70;;;2.90;;
69046;SDS011;57261;47.504;19.084;2022-09-09T11:55:40;5.90;;;2.97;;
69046;SDS011;57261;47.504;19.084;2022-09-09T11:58:44;7.53;;;2.90;;
69046;SDS011;57261;47.504;19.084;2022-09-09T12:01:58;5.93;;;3.10;;
69046;SDS011;57261;47.504;19.084;2022-09-09T12:05:22;7.32;;;3.33;;
69046;SDS011;57261;47.504;19.084;2022-09-09T12:08:26;9.02;;;4.32;;
69046;SDS011;57261;47.504;19.084;2022-09-09T12:11:28;8.03;;;4.27;;
69046;SDS011;57261;47.504;19.084;2022-09-09T12:18:14;8.13;;;3.97;;
69046;SDS011;57261;47.504;19.084;2022-09-09T12:21:21;8.55;;;4.00;;
69046;SDS011;57261;47.504;19.084;2022-09-09T12:24:37;7.43;;;3.70;;
69046;SDS011;57261;47.504;19.084;2022-09-09T12:27:57;7.97;;;3.60;;
69046;SDS011;57261;47.504;19.084;2022-09-09T12:31:09;9.30;;;4.13;;
69046;SDS011;57261;47.504;19.084;2022-09-09T12:34:19;7.55;;;3.80;;
69046;SDS011;57261;47.504;19.084;2022-09-09T12:40:55;7.53;;;3.50;;
69046;SDS011;57261;47.504;19.084;2022-09-09T12:44:06;7.60;;;3.07;;
69046;SDS011;57261;47.504;19.084;2022-09-09T12:47:09;7.20;;;3.00;;
69046;SDS011;57261;47.504;19.084;2022-09-09T12:50:17;10.65;;;5.07;;
69046;SDS011;57261;47.504;19.084;2022-09-09T12:56:34;16.55;;;8.63;;
69046;SDS011;57261;47.504;19.084;2022-09-09T12:59:40;13.10;;;7.97;;
69046;SDS011;57261;47.504;19.084;2022-09-09T13:02:51;15.33;;;9.37;;
69046;SDS011;57261;47.504;19.084;2022-09-09T13:05:57;16.15;;;10.20;;
69046;SDS011;57261;47.504;19.084;2022-09-09T13:09:02;15.68;;;9.35;;
69046;SDS011;57261;47.504;19.084;2022-09-09T13:12:03;17.53;;;11.10;;
69046;SDS011;57261;47.504;19.084;2022-09-09T13:15:15;14.23;;;9.13;;
69046;SDS011;57261;47.504;19.084;2022-09-09T13:18:24;17.88;;;10.63;;
69046;SDS011;57261;47.504;19.084;2022-09-09T13:21:34;15.90;;;9.45;;
69046;SDS011;57261;47.504;19.084;2022-09-09T13:24:37;12.27;;;7.95;;
69046;SDS011;57261;47.504;19.084;2022-09-09T13:27:50;16.20;;;9.37;;
69046;SDS011;57261;47.504;19.084;2022-09-09T13:30:56;16.83;;;11.77;;
69046;SDS011;57261;47.504;19.084;2022-09-09T13:34:11;18.25;;;12.55;;
69046;SDS011;57261;47.504;19.084;2022-09-09T13:37:21;18.88;;;13.63;;
69046;SDS011;57261;47.504;19.084;2022-09-09T13:40:31;26.30;;;18.52;;
69046;SDS011;57261;47.504;19.084;2022-09-09T13:43:41;23.27;;;13.90;;
69046;SDS011;57261;47.504;19.084;2022-09-09T13:46:43;32.00;;;21.52;;
69046;SDS011;57261;47.504;19.084;2022-09-09T13:49:44;21.17;;;14.73;;
69046;SDS011;57261;47.504;19.084;2022-09-09T13:52:46;20.57;;;12.57;;
69046;SDS011;57261;47.504;19.084;2022-09-09T13:55:49;24.08;;;15.18;;
69046;SDS011;57261;47.504;19.084;2022-09-09T13:58:51;20.95;;;13.30;;
69046;SDS011;57261;47.504;19.084;2022-09-09T14:01:51;21.20;;;12.00;;
69046;SDS011;57261;47.504;19.084;2022-09-09T14:04:52;22.43;;;13.27;;
69046;SDS011;57261;47.504;19.084;2022-09-09T14:07:55;19.17;;;11.43;;
69046;SDS011;57261;47.504;19.084;2022-09-09T14:10:55;15.18;;;9.07;;
69046;SDS011;57261;47.504;19.084;2022-09-09T14:13:57;11.70;;;7.20;;
69046;SDS011;57261;47.504;19.084;2022-09-09T14:16:57;11.98;;;7.13;;
69046;SDS011;57261;47.504;19.084;2022-09-09T14:19:58;12.17;;;6.93;;
69046;SDS011;57261;47.504;19.084;2022-09-09T14:22:58;14.00;;;7.67;;
69046;SDS011;57261;47.504;19.084;2022-09-09T14:25:59;13.67;;;7.87;;
69046;SDS011;57261;47.504;19.084;2022-09-09T14:28:59;12.60;;;6.70;;
69046;SDS011;57261;47.504;19.084;2022-09-09T14:32:01;12.70;;;7.90;;
69046;SDS011;57261;47.504;19.084;2022-09-09T14:35:01;12.27;;;7.07;;
69046;SDS011;57261;47.504;19.084;2022-09-09T14:38:03;11.40;;;7.03;;
69046;SDS011;57261;47.504;19.084;2022-09-09T14:41:11;12.13;;;6.70;;
69046;SDS011;57261;47.504;19.084;2022-09-09T14:44:12;11.90;;;6.45;;
69046;SDS011;57261;47.504;19.084;2022-09-09T14:47:13;12.77;;;7.40;;
69046;SDS011;57261;47.504;19.084;2022-09-09T14:50:13;14.10;;;8.60;;
69046;SDS011;57261;47.504;19.084;2022-09-09T14:53:15;13.80;;;8.43;;
69046;SDS011;57261;47.504;19.084;2022-09-09T14:56:17;14.27;;;7.95;;
69046;SDS011;57261;47.504;19.084;2022-09-09T14:59:21;15.97;;;10.10;;
69046;SDS011;57261;47.504;19.084;2022-09-09T15:02:22;17.02;;;9.43;;
69046;SDS011;57261;47.504;19.084;2022-09-09T15:05:22;13.77;;;8.13;;
69046;SDS011;57261;47.504;19.084;2022-09-09T15:08:24;11.97;;;7.30;;
69046;SDS011;57261;47.504;19.084;2022-09-09T15:11:26;13.13;;;7.95;;
69046;SDS011;57261;47.504;19.084;2022-09-09T15:14:30;12.68;;;7.40;;
69046;SDS011;57261;47.504;19.084;2022-09-09T15:17:31;11.77;;;7.13;;
69046;SDS011;57261;47.504;19.084;2022-09-09T15:20:31;12.10;;;8.48;;
69046;SDS011;57261;47.504;19.084;2022-09-09T15:23:32;11.30;;;7.20;;
69046;SDS011;57261;47.504;19.084;2022-09-09T15:26:33;12.38;;;7.20;;
69046;SDS011;57261;47.504;19.084;2022-09-09T15:29:35;10.60;;;6.17;;
69046;SDS011;57261;47.504;19.084;2022-09-09T15:32:38;12.48;;;7.00;;
69046;SDS011;57261;47.504;19.084;2022-09-09T15:35:39;10.93;;;7.63;;
69046;SDS011;57261;47.504;19.084;2022-09-09T15:38:43;13.70;;;8.55;;
69046;SDS011;57261;47.504;19.084;2022-09-09T15:41:44;13.03;;;7.53;;
69046;SDS011;57261;47.504;19.084;2022-09-09T15:44:45;12.98;;;7.57;;
69046;SDS011;57261;47.504;19.084;2022-09-09T15:47:47;12.80;;;7.13;;
69046;SDS011;57261;47.504;19.084;2022-09-09T15:50:47;13.63;;;7.18;;
69046;SDS011;57261;47.504;19.084;2022-09-09T15:54:02;13.30;;;8.43;;
69046;SDS011;57261;47.504;19.084;2022-09-09T15:57:05;15.38;;;8.63;;
69046;SDS011;57261;47.504;19.084;2022-09-09T16:00:07;14.27;;;8.73;;
69046;SDS011;57261;47.504;19.084;2022-09-09T16:03:13;13.77;;;7.80;;
69046;SDS011;57261;47.504;19.084;2022-09-09T16:06:14;14.20;;;8.27;;
69046;SDS011;57261;47.504;19.084;2022-09-09T16:09:14;15.45;;;8.45;;
69046;SDS011;57261;47.504;19.084;2022-09-09T16:12:15;16.50;;;8.73;;
69046;SDS011;57261;47.504;19.084;2022-09-09T16:15:16;13.98;;;8.07;;
69046;SDS011;57261;47.504;19.084;2022-09-09T16:18:16;15.03;;;8.27;;
69046;SDS011;57261;47.504;19.084;2022-09-09T16:21:22;15.52;;;7.55;;
69046;SDS011;57261;47.504;19.084;2022-09-09T16:24:24;14.05;;;7.53;;
69046;SDS011;57261;47.504;19.084;2022-09-09T16:27:24;16.17;;;7.93;;
69046;SDS011;57261;47.504;19.084;2022-09-09T16:30:24;12.50;;;6.83;;
69046;SDS011;57261;47.504;19.084;2022-09-09T16:33:25;11.87;;;5.97;;
69046;SDS011;57261;47.504;19.084;2022-09-09T16:36:27;11.20;;;6.13;;
69046;SDS011;57261;47.504;19.084;2022-09-09T16:39:30;12.38;;;6.70;;
69046;SDS011;57261;47.504;19.084;2022-09-09T16:42:30;14.00;;;6.90;;
69046;SDS011;57261;47.504;19.084;2022-09-09T16:45:31;11.40;;;6.10;;
69046;SDS011;57261;47.504;19.084;2022-09-09T16:48:32;14.27;;;6.80;;
69046;SDS011;57261;47.504;19.084;2022-09-09T16:51:35;13.73;;;6.33;;
69046;SDS011;57261;47.504;19.084;2022-09-09T16:54:37;12.43;;;6.10;;
69046;SDS011;57261;47.504;19.084;2022-09-09T16:57:40;11.60;;;6.57;;
69046;SDS011;57261;47.504;19.084;2022-09-09T17:00:41;12.97;;;7.00;;
69046;SDS011;57261;47.504;19.084;2022-09-09T17:03:42;12.68;;;7.10;;
69046;SDS011;57261;47.504;19.084;2022-09-09T17:06:45;12.97;;;6.53;;
69046;SDS011;57261;47.504;19.084;2022-09-09T17:09:46;12.35;;;6.90;;
69046;SDS011;57261;47.504;19.084;2022-09-09T17:12:46;12.63;;;6.37;;
69046;SDS011;57261;47.504;19.084;2022-09-09T17:15:46;13.87;;;7.17;;
69046;SDS011;57261;47.504;19.084;2022-09-09T17:18:48;14.33;;;7.27;;
69046;SDS011;57261;47.504;19.084;2022-09-09T17:21:52;12.65;;;6.70;;
69046;SDS011;57261;47.504;19.084;2022-09-09T17:24:52;15.10;;;6.53;;
69046;SDS011;57261;47.504;19.084;2022-09-09T17:27:52;13.87;;;6.70;;
69046;SDS011;57261;47.504;19.084;2022-09-09T17:30:53;13.23;;;6.27;;
69046;SDS011;57261;47.504;19.084;2022-09-09T17:33:54;12.60;;;6.32;;
69046;SDS011;57261;47.504;19.084;2022-09-09T17:36:55;12.43;;;6.50;;
69046;SDS011;57261;47.504;19.084;2022-09-09T17:39:55;14.73;;;6.32;;
69046;SDS011;57261;47.504;19.084;2022-09-09T17:42:56;10.43;;;5.90;;
69046;SDS011;57261;47.504;19.084;2022-09-09T17:49:08;9.60;;;5.20;;
69046;SDS011;57261;47.504;19.084;2022-09-09T17:52:12;11.30;;;5.83;;
69046;SDS011;57261;47.504;19.084;2022-09-09T17:55:12;9.70;;;5.07;;
69046;SDS011;57261;47.504;19.084;2022-09-09T17:58:12;10.43;;;5.60;;
69046;SDS011;57261;47.504;19.084;2022-09-09T18:01:26;10.30;;;5.40;;
69046;SDS011;57261;47.504;19.084;2022-09-09T18:04:29;11.33;;;5.60;;
69046;SDS011;57261;47.504;19.084;2022-09-09T18:07:29;11.33;;;5.70;;
69046;SDS011;57261;47.504;19.084;2022-09-09T18:10:30;8.90;;;5.07;;
69046;SDS011;57261;47.504;19.084;2022-09-09T18:13:30;11.90;;;5.70;;
69046;SDS011;57261;47.504;19.084;2022-09-09T18:16:32;11.03;;;5.30;;
69046;SDS011;57261;47.504;19.084;2022-09-09T18:19:36;11.65;;;5.53;;
69046;SDS011;57261;47.504;19.084;2022-09-09T18:22:36;10.67;;;5.60;;
69046;SDS011;57261;47.504;19.084;2022-09-09T18:25:40;11.27;;;5.90;;
69046;SDS011;57261;47.504;19.084;2022-09-09T18:28:41;11.00;;;5.78;;
69046;SDS011;57261;47.504;19.084;2022-09-09T18:31:42;11.73;;;5.50;;
69046;SDS011;57261;47.504;19.084;2022-09-09T18:34:43;12.10;;;5.73;;
69046;SDS011;57261;47.504;19.084;2022-09-09T18:37:45;11.65;;;5.60;;
69046;SDS011;57261;47.504;19.084;2022-09-09T18:40:46;9.60;;;5.00;;
69046;SDS011;57261;47.504;19.084;2022-09-09T18:43:47;10.60;;;5.30;;
69046;SDS011;57261;47.504;19.084;2022-09-09T18:46:49;10.88;;;4.82;;
69046;SDS011;57261;47.504;19.084;2022-09-09T18:49:50;9.07;;;5.17;;
69046;SDS011;57261;47.504;19.084;2022-09-09T18:52:51;9.63;;;4.90;;
69046;SDS011;57261;47.504;19.084;2022-09-09T18:56:02;10.33;;;5.50;;
69046;SDS011;57261;47.504;19.084;2022-09-09T18:59:05;11.90;;;5.50;;
69046;SDS011;57261;47.504;19.084;2022-09-09T19:02:08;10.57;;;5.27;;
69046;SDS011;57261;47.504;19.084;2022-09-09T19:05:10;10.03;;;5.07;;
69046;SDS011;57261;47.504;19.084;2022-09-09T19:08:11;10.90;;;5.13;;
69046;SDS011;57261;47.504;19.084;2022-09-09T19:11:12;10.57;;;5.00;;
69046;SDS011;57261;47.504;19.084;2022-09-09T19:14:24;11.20;;;5.50;;
69046;SDS011;57261;47.504;19.084;2022-09-09T19:17:24;10.23;;;4.87;;
69046;SDS011;57261;47.504;19.084;2022-09-09T19:20:25;12.30;;;5.27;;
69046;SDS011;57261;47.504;19.084;2022-09-09T19:23:26;11.00;;;5.30;;
69046;SDS011;57261;47.504;19.084;2022-09-09T19:26:31;9.82;;;5.22;;
69046;SDS011;57261;47.504;19.084;2022-09-09T19:29:35;9.45;;;5.40;;
69046;SDS011;57261;47.504;19.084;2022-09-09T19:32:42;11.35;;;5.50;;
69046;SDS011;57261;47.504;19.084;2022-09-09T19:35:42;10.70;;;5.27;;
69046;SDS011;57261;47.504;19.084;2022-09-09T19:38:43;10.47;;;6.13;;
69046;SDS011;57261;47.504;19.084;2022-09-09T19:41:45;8.55;;;5.65;;
69046;SDS011;57261;47.504;19.084;2022-09-09T19:44:46;9.40;;;5.68;;
69046;SDS011;57261;47.504;19.084;2022-09-09T19:47:47;8.27;;;5.57;;
69046;SDS011;57261;47.504;19.084;2022-09-09T19:50:47;9.77;;;6.23;;
69046;SDS011;57261;47.504;19.084;2022-09-09T19:53:49;9.60;;;6.70;;
69046;SDS011;57261;47.504;19.084;2022-09-09T19:56:52;11.20;;;7.55;;
69046;SDS011;57261;47.504;19.084;2022-09-09T19:59:53;11.25;;;7.20;;
69046;SDS011;57261;47.504;19.084;2022-09-09T20:02:53;13.50;;;7.90;;
69046;SDS011;57261;47.504;19.084;2022-09-09T20:05:53;11.37;;;7.77;;
69046;SDS011;57261;47.504;19.084;2022-09-09T20:08:54;10.93;;;7.03;;
69046;SDS011;57261;47.504;19.084;2022-09-09T20:11:56;12.63;;;7.82;;
69046;SDS011;57261;47.504;19.084;2022-09-09T20:14:57;11.13;;;7.82;;
69046;SDS011;57261;47.504;19.084;2022-09-09T20:17:57;11.03;;;8.00;;
69046;SDS011;57261;47.504;19.084;2022-09-09T20:20:58;12.03;;;7.70;;